Time,TemperatureF,DewpointF,PressureIn,WindDirection,WindDirectionDegrees,WindSpeedMPH,WindSpeedGustMPH,Humidity,HourlyPrecipIn,Conditions,Clouds,dailyrainin,SoftwareType,DateUTC
2013-05-27 00:01:00,47.1,39.1,30.27,South,188,0.0,0.0,73,0.00,,OVC OVC///CB,0.00,WUHU216DAVISVP2,2013-05-27 04:01:00,
2013-05-27 00:06:00,47.1,39.1,30.27,South,188,0.0,0.0,73,0.00,,OVC OVC///CB,0.00,WUHU216DAVISVP2,2013-05-27 04:06:00,
2013-05-27 00:11:00,47.0,39.4,30.27,South,188,0.0,0.0,74,0.00,,OVC OVC///CB,0.00,WUHU216DAVISVP2,2013-05-27 04:11:00,
2013-05-27 00:16:00,46.8,39.2,30.27,South,188,0.0,0.0,74,0.00,,OVC OVC///CB,0.00,WUHU216DAVISVP2,2013-05-27 04:16:00,
2013-05-27 00:21:00,46.4,38.8,30.27,South,188,0.0,0.0,74,0.00,,OVC OVC///CB,0.00,WUHU216DAVISVP2,2013-05-27 04:21:00,
2013-05-27 00:26:00,46.1,38.5,30.27,South,188,0.0,0.0,74,0.00,,OVC OVC///CB,0.00,WUHU216DAVISVP2,2013-05-27 04:26:00,
2013-05-27 00:31:00,46.2,38.6,30.27,South,188,0.0,0.0,74,0.00,,OVC OVC///CB,0.00,WUHU216DAVISVP2,2013-05-27 04:31:00,
2013-05-27 00:36:00,46.2,38.9,30.28,South,188,0.0,0.0,75,0.00,,OVC OVC///CB,0.00,WUHU216DAVISVP2,2013-05-27 04:36:00,
2013-05-27 00:41:00,45.9,38.6,30.28,South,188,0.0,0.0,75,0.00,,OVC OVC///CB,0.00,WUHU216DAVISVP2,2013-05-27 04:41:00,
2013-05-27 00:46:00,45.6,38.7,30.28,South,188,0.0,0.0,76,0.00,,OVC OVC///CB,0.00,WUHU216DAVISVP2,2013-05-27 04:46:00,
2013-05-27 00:51:00,45.4,38.8,30.28,South,188,0.0,0.0,77,0.00,,OVC OVC///CB,0.00,WUHU216DAVISVP2,2013-05-27 04:51:00,
2013-05-27 00:56:00,45.2,38.9,30.28,South,188,0.0,0.0,78,0.00,,OVC OVC///CB,0.00,WUHU216DAVISVP2,2013-05-27 04:56:00,
2013-05-27 01:01:00,45.1,38.8,30.28,South,188,0.0,0.0,78,0.00,,OVC OVC///CB,0.00,WUHU216DAVISVP2,2013-05-27 05:01:00,
2013-05-27 01:06:00,44.7,38.7,30.27,South,188,0.0,0.0,79,0.00,,OVC OVC///CB,0.00,WUHU216DAVISVP2,2013-05-27 05:06:00,
2013-05-27 01:11:00,44.4,38.8,30.27,South,188,0.0,0.0,80,0.00,,OVC OVC///CB,0.00,WUHU216DAVISVP2,2013-05-27 05:11:00,
2013-05-27 01:16:00,44.2,38.9,30.27,South,188,0.0,0.0,81,0.00,,OVC OVC///CB,0.00,WUHU216DAVISVP2,2013-05-27 05:16:00,
2013-05-27 01:21:00,44.0,38.7,30.27,South,188,0.0,0.0,81,0.00,,OVC OVC///CB,0.00,WUHU216DAVISVP2,2013-05-27 05:21:00,
2013-05-27 01:26:00,43.8,38.8,30.27,South,188,0.0,0.0,82,0.00,,OVC OVC///CB,0.00,WUHU216DAVISVP2,2013-05-27 05:26:00,
2013-05-27 01:31:00,43.7,38.7,30.27,South,188,0.0,0.0,82,0.00,,OVC OVC///CB,0.00,WUHU216DAVISVP2,2013-05-27 05:31:00,
2013-05-27 01:36:00,44.0,39.6,30.27,South,188,0.0,0.0,84,0.00,,OVC OVC///CB,0.00,WUHU216DAVISVP2,2013-05-27 05:36:00,
2013-05-27 01:41:00,44.0,39.6,30.27,South,188,0.0,0.0,84,0.00,,OVC OVC///CB,0.00,WUHU216DAVISVP2,2013-05-27 05:41:00,
2013-05-27 01:46:00,43.7,39.6,30.27,South,188,0.0,0.0,85,0.00,,OVC OVC///CB,0.00,WUHU216DAVISVP2,2013-05-27 05:46:00,
2013-05-27 01:51:00,43.3,39.5,30.27,South,188,0.0,0.0,86,0.00,,OVC OVC///CB,0.00,WUHU216DAVISVP2,2013-05-27 05:51:00,
2013-05-27 01:56:00,43.1,39.6,30.27,South,188,0.0,0.0,87,0.00,,OVC OVC///CB,0.00,WUHU216DAVISVP2,2013-05-27 05:56:00,
2013-05-27 02:01:00,42.8,39.6,30.27,South,188,0.0,0.0,88,0.00,,OVC OVC///CB,0.00,WUHU216DAVISVP2,2013-05-27 06:01:00,
2013-05-27 02:06:00,42.8,39.9,30.27,South,189,0.0,0.0,89,0.00,,OVC OVC///CB,0.00,WUHU216DAVISVP2,2013-05-27 06:06:00,
2013-05-27 02:11:00,42.6,39.9,30.27,South,188,0.0,0.0,90,0.00,,OVC OVC///CB,0.00,WUHU216DAVISVP2,2013-05-27 06:11:00,
2013-05-27 02:16:00,42.4,40.0,30.27,South,188,0.0,0.0,91,0.00,,OVC OVC///CB,0.00,WUHU216DAVISVP2,2013-05-27 06:16:00,
2013-05-27 02:21:00,42.4,40.3,30.27,South,188,0.0,0.0,92,0.00,,OVC OVC///CB,0.00,WUHU216DAVISVP2,2013-05-27 06:21:00,
2013-05-27 02:26:00,42.3,40.5,30.27,South,188,0.0,0.0,93,0.00,,OVC OVC///CB,0.00,WUHU216DAVISVP2,2013-05-27 06:26:00,
2013-05-27 02:31:00,42.1,40.3,30.26,South,188,0.0,0.0,93,0.00,,OVC OVC///CB,0.00,WUHU216DAVISVP2,2013-05-27 06:31:00,
2013-05-27 02:36:00,41.7,39.9,30.27,South,188,0.0,0.0,93,0.00,,OVC OVC///CB,0.00,WUHU216DAVISVP2,2013-05-27 06:36:00,
2013-05-27 02:41:00,41.3,39.5,30.26,South,188,0.0,0.0,93,0.00,,OVC OVC///CB,0.00,WUHU216DAVISVP2,2013-05-27 06:41:00,
2013-05-27 02:46:00,40.9,39.1,30.26,South,188,0.0,0.0,93,0.00,,OVC OVC///CB,0.00,WUHU216DAVISVP2,2013-05-27 06:46:00,
2013-05-27 02:51:00,40.7,39.2,30.26,South,188,0.0,0.0,94,0.00,,OVC OVC///CB,0.00,WUHU216DAVISVP2,2013-05-27 06:51:00,
2013-05-27 02:56:00,40.9,39.6,30.26,South,189,0.0,0.0,95,0.00,,OVC OVC///CB,0.00,WUHU216DAVISVP2,2013-05-27 06:56:00,
2013-05-27 03:01:00,41.0,39.7,30.27,South,188,0.0,0.0,95,0.00,,OVC OVC///CB,0.00,WUHU216DAVISVP2,2013-05-27 07:01:00,
2013-05-27 03:06:00,40.9,39.6,30.27,South,188,0.0,0.0,95,0.00,,OVC OVC///CB,0.00,WUHU216DAVISVP2,2013-05-27 07:06:00,
2013-05-27 03:11:00,40.6,39.3,30.27,South,188,0.0,0.0,95,0.00,,OVC OVC///CB,0.00,WUHU216DAVISVP2,2013-05-27 07:11:00,
2013-05-27 03:16:00,40.8,39.5,30.26,South,188,0.0,0.0,95,0.00,,OVC OVC///CB,0.00,WUHU216DAVISVP2,2013-05-27 07:16:00,
2013-05-27 03:21:00,41.2,40.2,30.26,South,188,0.0,0.0,96,0.00,,OVC OVC///CB,0.00,WUHU216DAVISVP2,2013-05-27 07:21:00,
2013-05-27 03:26:00,41.2,40.2,30.26,South,188,0.0,0.0,96,0.00,,OVC OVC///CB,0.00,WUHU216DAVISVP2,2013-05-27 07:26:00,
2013-05-27 03:31:00,41.0,40.0,30.26,South,188,0.0,0.0,96,0.00,,OVC OVC///CB,0.00,WUHU216DAVISVP2,2013-05-27 07:31:00,
2013-05-27 03:36:00,41.1,40.1,30.26,South,188,0.0,0.0,96,0.00,,OVC OVC///CB,0.00,WUHU216DAVISVP2,2013-05-27 07:36:00,
2013-05-27 03:41:00,41.3,40.3,30.26,South,188,0.0,0.0,96,0.00,,OVC OVC///CB,0.00,WUHU216DAVISVP2,2013-05-27 07:41:00,
2013-05-27 03:46:00,41.3,40.3,30.26,South,189,0.0,0.0,96,0.00,,OVC OVC///CB,0.00,WUHU216DAVISVP2,2013-05-27 07:46:00,
2013-05-27 03:51:00,41.2,40.2,30.26,South,188,0.0,0.0,96,0.00,,OVC OVC///CB,0.00,WUHU216DAVISVP2,2013-05-27 07:51:00,
2013-05-27 03:56:00,41.3,40.6,30.26,South,188,0.0,0.0,97,0.00,,OVC OVC///CB,0.00,WUHU216DAVISVP2,2013-05-27 07:56:00,
2013-05-27 04:01:00,41.3,40.6,30.25,South,188,0.0,0.0,97,0.00,,OVC OVC///CB,0.00,WUHU216DAVISVP2,2013-05-27 08:01:00,
2013-05-27 04:06:00,41.2,40.5,30.25,South,188,0.0,0.0,97,0.00,,OVC OVC///CB,0.00,WUHU216DAVISVP2,2013-05-27 08:06:00,
2013-05-27 04:11:00,41.1,40.4,30.25,South,188,0.0,0.0,97,0.00,,OVC OVC///CB,0.00,WUHU216DAVISVP2,2013-05-27 08:11:00,
2013-05-27 04:16:00,40.9,40.2,30.25,South,188,0.0,0.0,97,0.00,,OVC OVC///CB,0.00,WUHU216DAVISVP2,2013-05-27 08:16:00,
2013-05-27 04:21:00,41.0,40.3,30.25,South,189,0.0,0.0,97,0.00,,OVC OVC///CB,0.00,WUHU216DAVISVP2,2013-05-27 08:21:00,
2013-05-27 04:26:00,41.1,40.4,30.25,South,188,0.0,0.0,97,0.00,,OVC OVC///CB,0.00,WUHU216DAVISVP2,2013-05-27 08:26:00,
2013-05-27 04:31:00,40.9,40.2,30.25,South,189,0.0,0.0,97,0.00,,OVC OVC///CB,0.00,WUHU216DAVISVP2,2013-05-27 08:31:00,
2013-05-27 04:36:00,40.9,40.2,30.25,South,188,0.0,0.0,97,0.00,,OVC OVC///CB,0.00,WUHU216DAVISVP2,2013-05-27 08:36:00,
2013-05-27 04:41:00,40.6,39.9,30.25,South,188,0.0,0.0,97,0.00,,OVC OVC///CB,0.00,WUHU216DAVISVP2,2013-05-27 08:41:00,
2013-05-27 04:46:00,40.7,40.3,30.25,South,188,0.0,0.0,98,0.00,,OVC OVC///CB,0.00,WUHU216DAVISVP2,2013-05-27 08:46:00,
2013-05-27 04:51:00,40.8,40.4,30.25,South,188,0.0,0.0,98,0.00,,OVC OVC///CB,0.00,WUHU216DAVISVP2,2013-05-27 08:51:00,
2013-05-27 04:56:00,40.9,40.5,30.25,South,188,0.0,0.0,98,0.00,,OVC OVC///CB,0.00,WUHU216DAVISVP2,2013-05-27 08:56:00,
2013-05-27 05:01:00,41.0,40.6,30.25,South,188,0.0,0.0,98,0.00,,OVC OVC///CB,0.00,WUHU216DAVISVP2,2013-05-27 09:01:00,
2013-05-27 05:06:00,41.2,40.8,30.26,South,188,0.0,0.0,98,0.00,,OVC OVC///CB,0.00,WUHU216DAVISVP2,2013-05-27 09:06:00,
2013-05-27 05:11:00,41.1,40.7,30.26,South,188,0.0,0.0,98,0.00,,OVC OVC///CB,0.00,WUHU216DAVISVP2,2013-05-27 09:11:00,
2013-05-27 05:16:00,41.0,40.6,30.26,South,189,0.0,0.0,98,0.00,,OVC OVC///CB,0.00,WUHU216DAVISVP2,2013-05-27 09:16:00,
2013-05-27 05:21:00,40.9,40.5,30.26,South,188,0.0,0.0,98,0.00,,OVC OVC///CB,0.00,WUHU216DAVISVP2,2013-05-27 09:21:00,
2013-05-27 05:26:00,41.1,40.7,30.26,South,188,0.0,0.0,98,0.00,,OVC OVC///CB,0.00,WUHU216DAVISVP2,2013-05-27 09:26:00,
2013-05-27 05:31:00,41.1,40.7,30.26,South,188,0.0,0.0,98,0.00,,OVC OVC///CB,0.00,WUHU216DAVISVP2,2013-05-27 09:31:00,
2013-05-27 05:36:00,41.2,40.8,30.26,South,188,0.0,0.0,98,0.00,,OVC OVC///CB,0.00,WUHU216DAVISVP2,2013-05-27 09:36:00,
2013-05-27 05:41:00,41.6,41.2,30.26,South,188,0.0,0.0,98,0.00,,OVC OVC///CB,0.00,WUHU216DAVISVP2,2013-05-27 09:41:00,
2013-05-27 05:46:00,41.8,41.4,30.26,South,188,0.0,0.0,98,0.00,,OVC OVC///CB,0.00,WUHU216DAVISVP2,2013-05-27 09:46:00,
2013-05-27 05:51:00,41.9,41.5,30.26,South,188,0.0,0.0,98,0.00,,OVC OVC///CB,0.00,WUHU216DAVISVP2,2013-05-27 09:51:00,
2013-05-27 05:56:00,42.2,41.8,30.25,South,188,0.0,0.0,98,0.00,,OVC OVC///CB,0.00,WUHU216DAVISVP2,2013-05-27 09:56:00,
2013-05-27 06:01:00,42.5,42.1,30.25,South,188,0.0,0.0,98,0.00,,OVC OVC///CB,0.00,WUHU216DAVISVP2,2013-05-27 10:01:00,
2013-05-27 06:06:00,42.7,42.3,30.25,South,188,0.0,0.0,98,0.00,,OVC OVC///CB,0.00,WUHU216DAVISVP2,2013-05-27 10:06:00,
2013-05-27 06:11:00,42.9,42.5,30.25,South,188,0.0,0.0,98,0.00,,OVC OVC///CB,0.00,WUHU216DAVISVP2,2013-05-27 10:11:00,
2013-05-27 06:16:00,42.9,42.5,30.25,South,188,0.0,0.0,98,0.00,,OVC OVC///CB,0.00,WUHU216DAVISVP2,2013-05-27 10:16:00,
2013-05-27 06:21:00,43.1,42.7,30.26,South,188,0.0,0.0,98,0.00,,OVC OVC///CB,0.00,WUHU216DAVISVP2,2013-05-27 10:21:00,
2013-05-27 06:26:00,43.3,42.9,30.26,South,188,0.0,0.0,98,0.00,,OVC OVC///CB,0.00,WUHU216DAVISVP2,2013-05-27 10:26:00,
2013-05-27 06:31:00,43.8,43.4,30.26,South,188,0.0,0.0,98,0.00,,OVC OVC///CB,0.00,WUHU216DAVISVP2,2013-05-27 10:31:00,
2013-05-27 06:36:00,44.1,43.4,30.26,South,188,0.0,0.0,97,0.00,,OVC OVC///CB,0.00,WUHU216DAVISVP2,2013-05-27 10:36:00,
2013-05-27 06:41:00,44.4,43.7,30.26,South,188,0.0,0.0,97,0.00,,OVC OVC///CB,0.00,WUHU216DAVISVP2,2013-05-27 10:41:00,
2013-05-27 06:46:00,44.7,43.7,30.26,South,188,0.0,0.0,96,0.00,,OVC OVC///CB,0.00,WUHU216DAVISVP2,2013-05-27 10:46:00,
2013-05-27 06:51:00,45.0,44.0,30.27,South,188,0.0,0.0,96,0.00,,OVC OVC///CB,0.00,WUHU216DAVISVP2,2013-05-27 10:51:00,
2013-05-27 06:56:00,45.5,44.2,30.26,South,188,0.0,0.0,95,0.00,,OVC OVC///CB,0.00,WUHU216DAVISVP2,2013-05-27 10:56:00,
2013-05-27 07:01:00,45.8,44.5,30.26,South,188,0.0,0.0,95,0.00,,OVC OVC///CB,0.00,WUHU216DAVISVP2,2013-05-27 11:01:00,
2013-05-27 07:06:00,46.1,44.5,30.26,South,188,0.0,0.0,94,0.00,,OVC OVC///CB,0.00,WUHU216DAVISVP2,2013-05-27 11:06:00,
2013-05-27 07:11:00,46.5,44.4,30.26,South,188,0.0,0.0,92,0.00,,OVC OVC///CB,0.00,WUHU216DAVISVP2,2013-05-27 11:11:00,
2013-05-27 07:16:00,46.9,44.2,30.26,South,188,0.0,0.0,90,0.00,,OVC OVC///CB,0.00,WUHU216DAVISVP2,2013-05-27 11:16:00,
2013-05-27 07:21:00,47.5,43.3,30.26,ESE,122,0.0,0.0,85,0.00,,OVC OVC///CB,0.00,WUHU216DAVISVP2,2013-05-27 11:21:00,
2013-05-27 07:26:00,48.2,42.5,30.27,ESE,112,0.0,0.0,80,0.00,,OVC OVC///CB,0.00,WUHU216DAVISVP2,2013-05-27 11:26:00,
2013-05-27 07:31:00,48.6,41.6,30.26,ESE,112,0.0,1.0,76,0.00,,OVC OVC///CB,0.00,WUHU216DAVISVP2,2013-05-27 11:31:00,
2013-05-27 07:36:00,49.1,41.4,30.27,SE,137,0.0,2.0,74,0.00,,OVC OVC///CB,0.00,WUHU216DAVISVP2,2013-05-27 11:36:00,
2013-05-27 07:41:00,49.6,41.9,30.27,SE,136,0.0,2.0,74,0.00,,OVC OVC///CB,0.00,WUHU216DAVISVP2,2013-05-27 11:41:00,
2013-05-27 07:46:00,50.0,41.6,30.27,East,101,0.0,2.0,72,0.00,,OVC OVC///CB,0.00,WUHU216DAVISVP2,2013-05-27 11:46:00,
2013-05-27 07:51:00,50.3,41.1,30.26,ESE,103,1.0,2.0,70,0.00,,OVC OVC///CB,0.00,WUHU216DAVISVP2,2013-05-27 11:51:00,
2013-05-27 07:56:00,50.5,41.3,30.26,East,90,1.0,3.0,70,0.00,,OVC OVC///CB,0.00,WUHU216DAVISVP2,2013-05-27 11:56:00,
2013-05-27 08:01:00,50.9,41.0,30.26,East,96,0.0,5.0,68,0.00,,OVC OVC///CB,0.00,WUHU216DAVISVP2,2013-05-27 12:01:00,
2013-05-27 08:06:00,51.2,40.9,30.26,ESE,102,3.0,5.0,67,0.00,,OVC OVC///CB,0.00,WUHU216DAVISVP2,2013-05-27 12:06:00,
2013-05-27 08:11:00,51.4,41.1,30.27,ESE,113,0.0,5.0,67,0.00,,OVC OVC///CB,0.00,WUHU216DAVISVP2,2013-05-27 12:11:00,
2013-05-27 08:16:00,51.7,41.4,30.27,East,97,0.0,5.0,67,0.00,,OVC OVC///CB,0.00,WUHU216DAVISVP2,2013-05-27 12:16:00,
2013-05-27 08:21:00,51.9,41.2,30.27,South,172,0.0,3.0,66,0.00,,OVC OVC///CB,0.00,WUHU216DAVISVP2,2013-05-27 12:21:00,
2013-05-27 08:26:00,52.1,41.4,30.27,South,173,0.0,3.0,66,0.00,,OVC OVC///CB,0.00,WUHU216DAVISVP2,2013-05-27 12:26:00,
2013-05-27 08:31:00,52.4,41.3,30.27,SE,135,0.0,2.0,65,0.00,,OVC OVC///CB,0.00,WUHU216DAVISVP2,2013-05-27 12:31:00,
2013-05-27 08:36:00,52.5,41.3,30.27,ESE,120,0.0,2.0,65,0.00,,OVC OVC///CB,0.00,WUHU216DAVISVP2,2013-05-27 12:36:00,
2013-05-27 08:41:00,52.6,41.4,30.27,ESE,120,0.0,2.0,65,0.00,,OVC OVC///CB,0.00,WUHU216DAVISVP2,2013-05-27 12:41:00,
2013-05-27 08:46:00,52.7,41.5,30.27,ESE,102,2.0,4.0,65,0.00,,OVC OVC///CB,0.00,WUHU216DAVISVP2,2013-05-27 12:46:00,
2013-05-27 08:51:00,52.9,42.1,30.27,ESE,122,0.0,4.0,66,0.00,,OVC OVC///CB,0.00,WUHU216DAVISVP2,2013-05-27 12:51:00,
2013-05-27 08:56:00,53.3,42.1,30.27,ESE,115,1.0,3.0,65,0.00,,OVC OVC///CB,0.00,WUHU216DAVISVP2,2013-05-27 12:56:00,
2013-05-27 09:01:00,53.5,41.5,30.27,ESE,120,0.0,3.0,63,0.00,,OVC OVC///CB,0.00,WUHU216DAVISVP2,2013-05-27 13:01:00,
2013-05-27 09:06:00,53.9,42.3,30.27,South,170,0.0,3.0,64,0.00,,OVC OVC///CB,0.00,WUHU216DAVISVP2,2013-05-27 13:06:00,
2013-05-27 09:11:00,54.1,41.7,30.26,ESE,116,1.0,3.0,62,0.00,,OVC OVC///CB,0.00,WUHU216DAVISVP2,2013-05-27 13:11:00,
2013-05-27 09:16:00,54.4,41.5,30.26,ESE,107,2.0,3.0,61,0.00,,OVC OVC///CB,0.00,WUHU216DAVISVP2,2013-05-27 13:16:00,
2013-05-27 09:21:00,54.2,41.3,30.26,SE,145,1.0,5.0,61,0.00,,OVC OVC///CB,0.00,WUHU216DAVISVP2,2013-05-27 13:21:00,
2013-05-27 09:26:00,54.5,41.6,30.26,SE,142,0.0,5.0,61,0.00,,OVC OVC///CB,0.00,WUHU216DAVISVP2,2013-05-27 13:26:00,
2013-05-27 09:31:00,54.8,42.3,30.26,East,101,0.0,4.0,62,0.00,,OVC OVC///CB,0.00,WUHU216DAVISVP2,2013-05-27 13:31:00,
2013-05-27 09:36:00,55.0,42.5,30.26,SE,145,0.0,4.0,62,0.00,,OVC OVC///CB,0.00,WUHU216DAVISVP2,2013-05-27 13:36:00,
2013-05-27 09:41:00,55.1,42.2,30.26,SE,145,0.0,2.0,61,0.00,,OVC OVC///CB,0.00,WUHU216DAVISVP2,2013-05-27 13:41:00,
2013-05-27 09:46:00,55.4,42.9,30.26,SSE,167,0.0,2.0,62,0.00,,OVC OVC///CB,0.00,WUHU216DAVISVP2,2013-05-27 13:46:00,
2013-05-27 09:51:00,55.4,41.6,30.26,SSW,195,0.0,2.0,59,0.00,,OVC OVC///CB,0.00,WUHU216DAVISVP2,2013-05-27 13:51:00,
2013-05-27 09:56:00,55.4,42.0,30.26,SSW,200,0.0,2.0,60,0.00,,OVC OVC///CB,0.00,WUHU216DAVISVP2,2013-05-27 13:56:00,
2013-05-27 10:01:00,55.3,41.9,30.26,ESE,118,1.0,2.0,60,0.00,,OVC OVC///CB,0.00,WUHU216DAVISVP2,2013-05-27 14:01:00,
2013-05-27 10:06:00,55.2,41.8,30.26,SSE,166,0.0,2.0,60,0.00,,OVC OVC///CB,0.00,WUHU216DAVISVP2,2013-05-27 14:06:00,
2013-05-27 10:11:00,55.3,41.9,30.26,SSE,149,0.0,3.0,60,0.00,,OVC OVC///CB,0.00,WUHU216DAVISVP2,2013-05-27 14:11:00,
2013-05-27 10:16:00,55.4,42.0,30.26,SSE,149,0.0,3.0,60,0.00,,OVC OVC///CB,0.00,WUHU216DAVISVP2,2013-05-27 14:16:00,
2013-05-27 10:21:00,55.6,42.2,30.26,South,170,0.0,2.0,60,0.00,,OVC OVC///CB,0.00,WUHU216DAVISVP2,2013-05-27 14:21:00,
2013-05-27 10:26:00,55.7,42.3,30.26,SW,218,0.0,2.0,60,0.00,,OVC OVC///CB,0.00,WUHU216DAVISVP2,2013-05-27 14:26:00,
2013-05-27 10:31:00,55.7,42.7,30.26,East,100,0.0,1.0,61,0.00,,OVC OVC///CB,0.00,WUHU216DAVISVP2,2013-05-27 14:31:00,
2013-05-27 10:36:00,55.8,42.8,30.26,SSW,212,0.0,1.0,61,0.00,,OVC OVC///CB,0.00,WUHU216DAVISVP2,2013-05-27 14:36:00,
2013-05-27 10:41:00,55.8,42.8,30.26,SSE,162,0.0,2.0,61,0.00,,OVC OVC///CB,0.00,WUHU216DAVISVP2,2013-05-27 14:41:00,
2013-05-27 10:46:00,55.8,42.4,30.26,SSE,149,0.0,2.0,60,0.00,,OVC OVC///CB,0.00,WUHU216DAVISVP2,2013-05-27 14:46:00,
2013-05-27 10:51:00,55.8,42.4,30.26,SSE,161,0.0,2.0,60,0.00,,OVC OVC///CB,0.00,WUHU216DAVISVP2,2013-05-27 14:51:00,
2013-05-27 10:56:00,55.7,42.3,30.26,SSW,205,0.0,5.0,60,0.00,,OVC OVC///CB,0.00,WUHU216DAVISVP2,2013-05-27 14:56:00,
2013-05-27 11:01:00,55.5,43.4,30.26,SSE,152,0.0,5.0,63,0.00,,OVC OVC///CB,0.00,WUHU216DAVISVP2,2013-05-27 15:01:00,
2013-05-27 11:06:00,55.4,43.3,30.26,SW,228,3.0,5.0,63,0.00,,OVC OVC///CB,0.00,WUHU216DAVISVP2,2013-05-27 15:06:00,
2013-05-27 11:11:00,55.2,43.9,30.26,WSW,248,0.0,5.0,65,0.00,,OVC OVC///CB,0.00,WUHU216DAVISVP2,2013-05-27 15:11:00,
2013-05-27 11:16:00,55.0,43.7,30.26,SE,131,1.0,3.0,65,0.00,,OVC OVC///CB,0.00,WUHU216DAVISVP2,2013-05-27 15:16:00,
2013-05-27 11:21:00,54.8,44.3,30.26,SSW,203,0.0,3.0,67,0.00,,OVC OVC///CB,0.00,WUHU216DAVISVP2,2013-05-27 15:21:00,
2013-05-27 11:26:00,54.7,45.4,30.26,SSW,203,0.0,2.0,70,0.00,,OVC OVC///CB,0.00,WUHU216DAVISVP2,2013-05-27 15:26:00,
2013-05-27 11:31:00,54.7,45.7,30.26,East,84,1.0,2.0,71,0.00,,OVC OVC///CB,0.00,WUHU216DAVISVP2,2013-05-27 15:31:00,
2013-05-27 11:36:00,54.5,45.5,30.26,SW,232,0.0,2.0,71,0.00,,OVC OVC///CB,0.00,WUHU216DAVISVP2,2013-05-27 15:36:00,
2013-05-27 11:41:00,54.4,45.8,30.26,South,172,0.0,2.0,72,0.00,,OVC OVC///CB,0.00,WUHU216DAVISVP2,2013-05-27 15:41:00,
2013-05-27 11:46:00,54.4,46.5,30.26,South,172,0.0,2.0,74,0.00,,OVC OVC///CB,0.00,WUHU216DAVISVP2,2013-05-27 15:46:00,
2013-05-27 11:51:00,54.4,47.2,30.26,SE,131,0.0,1.0,76,0.00,,OVC OVC///CB,0.00,WUHU216DAVISVP2,2013-05-27 15:51:00,
2013-05-27 11:56:00,54.3,47.4,30.26,SSW,203,0.0,1.0,77,0.00,,OVC OVC///CB,0.00,WUHU216DAVISVP2,2013-05-27 15:56:00,
2013-05-27 12:01:00,54.2,47.3,30.26,South,188,0.0,3.0,77,0.00,,OVC OVC///CB,0.00,WUHU216DAVISVP2,2013-05-27 16:01:00,
2013-05-27 12:06:00,54.0,47.2,30.26,SSW,212,0.0,3.0,77,0.01,,OVC OVC///CB,0.01,WUHU216DAVISVP2,2013-05-27 16:06:00,
2013-05-27 12:11:00,54.0,48.1,30.26,SW,232,2.0,3.0,80,0.01,,OVC OVC///CB,0.01,WUHU216DAVISVP2,2013-05-27 16:11:00,
2013-05-27 12:16:00,53.8,48.3,30.26,SW,218,1.0,3.0,81,0.01,,OVC OVC///CB,0.01,WUHU216DAVISVP2,2013-05-27 16:16:00,
2013-05-27 12:21:00,53.6,47.4,30.26,SW,225,1.0,5.0,79,0.01,,OVC OVC///CB,0.01,WUHU216DAVISVP2,2013-05-27 16:21:00,
2013-05-27 12:26:00,53.7,48.5,30.26,SSW,212,0.0,5.0,82,0.01,,OVC OVC///CB,0.01,WUHU216DAVISVP2,2013-05-27 16:26:00,
2013-05-27 12:31:00,53.9,48.4,30.25,SSW,198,4.0,6.0,81,0.01,,OVC OVC///CB,0.01,WUHU216DAVISVP2,2013-05-27 16:31:00,
2013-05-27 12:36:00,54.0,49.1,30.25,SSW,205,2.0,6.0,83,0.01,,OVC OVC///CB,0.01,WUHU216DAVISVP2,2013-05-27 16:36:00,
2013-05-27 12:41:00,54.2,49.0,30.25,SSW,193,0.0,6.0,82,0.02,,OVC OVC///CB,0.02,WUHU216DAVISVP2,2013-05-27 16:41:00,
2013-05-27 12:46:00,54.1,49.2,30.25,SSE,160,0.0,6.0,83,0.02,,OVC OVC///CB,0.02,WUHU216DAVISVP2,2013-05-27 16:46:00,
2013-05-27 12:51:00,54.2,49.6,30.25,WSW,242,0.0,5.0,84,0.02,,OVC OVC///CB,0.02,WUHU216DAVISVP2,2013-05-27 16:51:00,
2013-05-27 12:56:00,54.3,49.7,30.24,South,172,1.0,5.0,84,0.02,,OVC OVC///CB,0.02,WUHU216DAVISVP2,2013-05-27 16:56:00,
2013-05-27 13:01:00,54.6,50.3,30.24,ESE,118,0.0,5.0,85,0.02,,OVC OVC///CB,0.02,WUHU216DAVISVP2,2013-05-27 17:01:00,
2013-05-27 13:06:00,54.9,50.6,30.24,South,170,0.0,4.0,85,0.01,,OVC OVC///CB,0.02,WUHU216DAVISVP2,2013-05-27 17:06:00,
2013-05-27 13:11:00,55.0,50.1,30.24,SSE,165,0.0,4.0,83,0.02,,OVC OVC///CB,0.03,WUHU216DAVISVP2,2013-05-27 17:11:00,
2013-05-27 13:16:00,55.1,50.5,30.24,South,170,0.0,3.0,84,0.02,,OVC OVC///CB,0.03,WUHU216DAVISVP2,2013-05-27 17:16:00,
2013-05-27 13:21:00,55.2,50.9,30.23,SSE,155,0.0,3.0,85,0.02,,OVC OVC///CB,0.03,WUHU216DAVISVP2,2013-05-27 17:21:00,
2013-05-27 13:26:00,55.3,51.0,30.23,SE,136,0.0,3.0,85,0.02,,OVC OVC///CB,0.03,WUHU216DAVISVP2,2013-05-27 17:26:00,
2013-05-27 13:31:00,55.2,50.6,30.23,SSE,158,0.0,3.0,84,0.02,,OVC OVC///CB,0.03,WUHU216DAVISVP2,2013-05-27 17:31:00,
2013-05-27 13:36:00,55.2,50.3,30.23,SE,131,0.0,3.0,83,0.02,,OVC OVC///CB,0.03,WUHU216DAVISVP2,2013-05-27 17:36:00,
2013-05-27 13:41:00,55.3,50.7,30.23,South,170,0.0,3.0,84,0.01,,OVC OVC///CB,0.03,WUHU216DAVISVP2,2013-05-27 17:41:00,
2013-05-27 13:46:00,55.5,50.9,30.22,East,79,1.0,3.0,84,0.01,,OVC OVC///CB,0.03,WUHU216DAVISVP2,2013-05-27 17:46:00,
2013-05-27 13:51:00,55.5,50.2,30.22,South,176,2.0,3.0,82,0.01,,OVC OVC///CB,0.03,WUHU216DAVISVP2,2013-05-27 17:51:00,
2013-05-27 13:56:00,55.5,49.6,30.21,SW,221,0.0,3.0,80,0.01,,OVC OVC///CB,0.03,WUHU216DAVISVP2,2013-05-27 17:56:00,
2013-05-27 14:01:00,55.8,50.5,30.21,SSW,210,1.0,5.0,82,0.01,,OVC OVC///CB,0.03,WUHU216DAVISVP2,2013-05-27 18:01:00,
2013-05-27 14:06:00,56.5,51.9,30.20,SE,131,0.0,5.0,84,0.01,,OVC OVC///CB,0.03,WUHU216DAVISVP2,2013-05-27 18:06:00,
2013-05-27 14:11:00,57.2,52.2,30.20,SSE,160,0.0,4.0,83,0.00,,OVC OVC///CB,0.03,WUHU216DAVISVP2,2013-05-27 18:11:00,
2013-05-27 14:16:00,57.6,51.7,30.20,WNW,285,1.0,6.0,80,0.00,,OVC OVC///CB,0.03,WUHU216DAVISVP2,2013-05-27 18:16:00,
2013-05-27 14:21:00,57.9,51.6,30.20,SSW,202,0.0,6.0,79,0.00,,OVC OVC///CB,0.03,WUHU216DAVISVP2,2013-05-27 18:21:00,
2013-05-27 14:26:00,58.6,51.3,30.20,SW,226,0.0,6.0,76,0.00,,OVC OVC///CB,0.03,WUHU216DAVISVP2,2013-05-27 18:26:00,
2013-05-27 14:31:00,59.0,51.7,30.19,East,91,0.0,6.0,76,0.00,,OVC OVC///CB,0.03,WUHU216DAVISVP2,2013-05-27 18:31:00,
2013-05-27 14:36:00,59.1,50.0,30.19,SW,221,2.0,7.0,71,0.00,,OVC OVC///CB,0.03,WUHU216DAVISVP2,2013-05-27 18:36:00,
2013-05-27 14:41:00,59.3,50.5,30.19,SW,221,2.0,7.0,72,0.00,,OVC OVC///CB,0.03,WUHU216DAVISVP2,2013-05-27 18:41:00,
2013-05-27 14:46:00,59.4,50.3,30.19,SSE,153,4.0,8.0,71,0.00,,OVC OVC///CB,0.03,WUHU216DAVISVP2,2013-05-27 18:46:00,
2013-05-27 14:51:00,59.3,49.4,30.19,SSW,210,4.0,8.0,69,0.00,,OVC OVC///CB,0.03,WUHU216DAVISVP2,2013-05-27 18:51:00,
2013-05-27 14:56:00,59.3,49.4,30.19,SSE,152,0.0,7.0,69,0.00,,OVC OVC///CB,0.03,WUHU216DAVISVP2,2013-05-27 18:56:00,
2013-05-27 15:01:00,59.4,48.7,30.19,SW,219,0.0,6.0,67,0.00,,OVC OVC///CB,0.03,WUHU216DAVISVP2,2013-05-27 19:01:00,
2013-05-27 15:06:00,59.4,48.7,30.18,SSE,153,1.0,6.0,67,0.00,,OVC OVC///CB,0.03,WUHU216DAVISVP2,2013-05-27 19:06:00,
2013-05-27 15:11:00,59.4,48.3,30.18,SE,141,1.0,5.0,66,0.00,,OVC OVC///CB,0.03,WUHU216DAVISVP2,2013-05-27 19:11:00,
2013-05-27 15:16:00,59.3,48.2,30.18,SSE,155,0.0,6.0,66,0.00,,OVC OVC///CB,0.03,WUHU216DAVISVP2,2013-05-27 19:16:00,
2013-05-27 15:21:00,59.5,49.2,30.18,SE,132,0.0,6.0,68,0.00,,OVC OVC///CB,0.03,WUHU216DAVISVP2,2013-05-27 19:21:00,
2013-05-27 15:26:00,60.0,50.1,30.18,ESE,118,0.0,5.0,69,0.00,,OVC OVC///CB,0.03,WUHU216DAVISVP2,2013-05-27 19:26:00,
2013-05-27 15:31:00,60.2,49.9,30.18,SW,221,3.0,5.0,68,0.00,,OVC OVC///CB,0.03,WUHU216DAVISVP2,2013-05-27 19:31:00,
2013-05-27 15:36:00,60.3,49.6,30.18,SSW,195,2.0,6.0,67,0.00,,OVC OVC///CB,0.03,WUHU216DAVISVP2,2013-05-27 19:36:00,
2013-05-27 15:41:00,60.1,49.4,30.18,SSE,152,1.0,7.0,67,0.00,,OVC OVC///CB,0.03,WUHU216DAVISVP2,2013-05-27 19:41:00,
2013-05-27 15:46:00,60.1,49.0,30.18,WSW,255,0.0,7.0,66,0.00,,OVC OVC///CB,0.03,WUHU216DAVISVP2,2013-05-27 19:46:00,
2013-05-27 15:51:00,60.1,49.4,30.18,SSE,153,0.0,6.0,67,0.00,,OVC OVC///CB,0.03,WUHU216DAVISVP2,2013-05-27 19:51:00,
2013-05-27 15:56:00,60.2,48.7,30.17,SSW,200,0.0,6.0,65,0.00,,OVC OVC///CB,0.03,WUHU216DAVISVP2,2013-05-27 19:56:00,
2013-05-27 16:01:00,60.3,48.8,30.17,SSE,162,0.0,4.0,65,0.00,,OVC OVC///CB,0.03,WUHU216DAVISVP2,2013-05-27 20:01:00,
2013-05-27 16:06:00,60.6,49.1,30.17,South,169,0.0,4.0,65,0.00,,OVC OVC///CB,0.03,WUHU216DAVISVP2,2013-05-27 20:06:00,
2013-05-27 16:11:00,61.1,50.0,30.16,SE,136,0.0,4.0,66,0.00,,OVC OVC///CB,0.03,WUHU216DAVISVP2,2013-05-27 20:11:00,
2013-05-27 16:16:00,61.1,49.6,30.16,SE,146,0.0,5.0,65,0.00,,OVC OVC///CB,0.03,WUHU216DAVISVP2,2013-05-27 20:16:00,
2013-05-27 16:21:00,61.0,49.5,30.15,SE,138,0.0,5.0,65,0.00,,OVC OVC///CB,0.03,WUHU216DAVISVP2,2013-05-27 20:21:00,
2013-05-27 16:26:00,60.4,49.3,30.14,West,271,2.0,9.0,66,0.00,,OVC OVC///CB,0.03,WUHU216DAVISVP2,2013-05-27 20:26:00,
2013-05-27 16:31:00,60.6,49.5,30.16,SSW,200,1.0,9.0,66,0.00,,OVC OVC///CB,0.03,WUHU216DAVISVP2,2013-05-27 20:31:00,
2013-05-27 16:36:00,60.8,49.3,30.16,SE,136,1.0,8.0,65,0.00,,OVC OVC///CB,0.03,WUHU216DAVISVP2,2013-05-27 20:36:00,
2013-05-27 16:41:00,61.0,49.9,30.15,South,172,0.0,8.0,66,0.00,,OVC OVC///CB,0.03,WUHU216DAVISVP2,2013-05-27 20:41:00,
2013-05-27 16:46:00,61.1,50.0,30.15,ESE,107,2.0,5.0,66,0.00,,OVC OVC///CB,0.03,WUHU216DAVISVP2,2013-05-27 20:46:00,
2013-05-27 16:51:00,61.0,49.1,30.15,East,92,4.0,6.0,64,0.00,,OVC OVC///CB,0.03,WUHU216DAVISVP2,2013-05-27 20:51:00,
2013-05-27 16:56:00,61.0,49.1,30.15,SSW,201,0.0,6.0,64,0.00,,OVC OVC///CB,0.03,WUHU216DAVISVP2,2013-05-27 20:56:00,
2013-05-27 17:01:00,61.2,49.7,30.15,ESE,118,0.0,6.0,65,0.00,,OVC OVC///CB,0.03,WUHU216DAVISVP2,2013-05-27 21:01:00,
2013-05-27 17:06:00,61.1,49.1,30.14,SSW,203,3.0,5.0,64,0.00,,OVC OVC///CB,0.03,WUHU216DAVISVP2,2013-05-27 21:06:00,
2013-05-27 17:11:00,61.1,48.7,30.15,NE,42,0.0,5.0,63,0.00,,OVC OVC///CB,0.03,WUHU216DAVISVP2,2013-05-27 21:11:00,
2013-05-27 17:16:00,61.1,49.1,30.14,SSW,200,0.0,5.0,64,0.00,,OVC OVC///CB,0.03,WUHU216DAVISVP2,2013-05-27 21:16:00,
2013-05-27 17:21:00,61.1,49.1,30.14,South,173,0.0,5.0,64,0.00,,OVC OVC///CB,0.03,WUHU216DAVISVP2,2013-05-27 21:21:00,
2013-05-27 17:26:00,61.3,49.8,30.14,SE,129,0.0,5.0,65,0.00,,OVC OVC///CB,0.03,WUHU216DAVISVP2,2013-05-27 21:26:00,
2013-05-27 17:31:00,61.6,49.2,30.14,South,174,4.0,5.0,63,0.00,,OVC OVC///CB,0.03,WUHU216DAVISVP2,2013-05-27 21:31:00,
2013-05-27 17:36:00,61.5,48.7,30.14,South,174,1.0,4.0,62,0.00,,OVC OVC///CB,0.03,WUHU216DAVISVP2,2013-05-27 21:36:00,
2013-05-27 17:41:00,61.5,49.1,30.14,East,91,1.0,4.0,63,0.00,,OVC OVC///CB,0.03,WUHU216DAVISVP2,2013-05-27 21:41:00,
2013-05-27 17:46:00,61.4,48.6,30.14,SE,131,0.0,4.0,62,0.00,,OVC OVC///CB,0.03,WUHU216DAVISVP2,2013-05-27 21:46:00,
2013-05-27 17:51:00,61.4,48.6,30.14,ENE,78,1.0,4.0,62,0.00,,OVC OVC///CB,0.03,WUHU216DAVISVP2,2013-05-27 21:51:00,
2013-05-27 17:56:00,61.5,49.1,30.14,East,87,2.0,3.0,63,0.00,,OVC OVC///CB,0.03,WUHU216DAVISVP2,2013-05-27 21:56:00,
2013-05-27 18:01:00,61.4,49.4,30.13,ENE,66,2.0,6.0,64,0.00,,OVC OVC///CB,0.03,WUHU216DAVISVP2,2013-05-27 22:01:00,
2013-05-27 18:06:00,61.2,48.8,30.13,East,91,4.0,6.0,63,0.00,,OVC OVC///CB,0.03,WUHU216DAVISVP2,2013-05-27 22:06:00,
2013-05-27 18:11:00,61.0,48.6,30.12,ENE,75,2.0,7.0,63,0.00,,OVC OVC///CB,0.03,WUHU216DAVISVP2,2013-05-27 22:11:00,
2013-05-27 18:16:00,60.8,48.9,30.12,SSE,162,0.0,7.0,64,0.00,,OVC OVC///CB,0.03,WUHU216DAVISVP2,2013-05-27 22:16:00,
2013-05-27 18:21:00,60.8,48.4,30.12,ESE,108,6.0,7.0,63,0.00,,OVC OVC///CB,0.03,WUHU216DAVISVP2,2013-05-27 22:21:00,
2013-05-27 18:26:00,60.7,49.2,30.11,ESE,105,1.0,7.0,65,0.00,,OVC OVC///CB,0.03,WUHU216DAVISVP2,2013-05-27 22:26:00,
2013-05-27 18:31:00,60.7,48.8,30.11,ESE,118,4.0,7.0,64,0.00,,OVC OVC///CB,0.03,WUHU216DAVISVP2,2013-05-27 22:31:00,
2013-05-27 18:36:00,60.6,48.7,30.12,East,98,2.0,7.0,64,0.00,,OVC OVC///CB,0.03,WUHU216DAVISVP2,2013-05-27 22:36:00,
2013-05-27 18:41:00,60.6,49.1,30.12,NE,36,5.0,9.0,65,0.00,,OVC OVC///CB,0.03,WUHU216DAVISVP2,2013-05-27 22:41:00,
2013-05-27 18:46:00,60.5,49.0,30.11,ESE,117,0.0,9.0,65,0.00,,OVC OVC///CB,0.03,WUHU216DAVISVP2,2013-05-27 22:46:00,
2013-05-27 18:51:00,60.5,49.4,30.11,ESE,104,1.0,8.0,66,0.00,,OVC OVC///CB,0.03,WUHU216DAVISVP2,2013-05-27 22:51:00,
2013-05-27 18:56:00,60.4,49.3,30.11,SW,233,0.0,8.0,66,0.00,,OVC OVC///CB,0.03,WUHU216DAVISVP2,2013-05-27 22:56:00,
2013-05-27 19:01:00,60.4,49.7,30.11,SE,131,1.0,10.0,67,0.00,,OVC OVC///CB,0.03,WUHU216DAVISVP2,2013-05-27 23:01:00,
2013-05-27 19:06:00,60.3,49.6,30.11,East,100,3.0,10.0,67,0.00,,OVC OVC///CB,0.03,WUHU216DAVISVP2,2013-05-27 23:06:00,
2013-05-27 19:11:00,60.2,49.5,30.10,SE,142,0.0,9.0,67,0.00,,OVC OVC///CB,0.03,WUHU216DAVISVP2,2013-05-27 23:11:00,
2013-05-27 19:16:00,60.1,49.4,30.10,SE,145,1.0,9.0,67,0.00,,OVC OVC///CB,0.03,WUHU216DAVISVP2,2013-05-27 23:16:00,
2013-05-27 19:21:00,59.9,49.6,30.10,East,84,1.0,8.0,68,0.00,,OVC OVC///CB,0.03,WUHU216DAVISVP2,2013-05-27 23:21:00,
2013-05-27 19:26:00,59.9,50.0,30.10,South,188,0.0,8.0,69,0.00,,OVC OVC///CB,0.03,WUHU216DAVISVP2,2013-05-27 23:26:00,
2013-05-27 19:31:00,59.7,49.8,30.10,East,101,5.0,7.0,69,0.00,,OVC OVC///CB,0.03,WUHU216DAVISVP2,2013-05-27 23:31:00,
2013-05-27 19:36:00,59.6,49.7,30.10,East,91,4.0,7.0,69,0.00,,OVC OVC///CB,0.03,WUHU216DAVISVP2,2013-05-27 23:36:00,
2013-05-27 19:41:00,59.5,49.6,30.09,South,183,0.0,9.0,69,0.00,,OVC OVC///CB,0.03,WUHU216DAVISVP2,2013-05-27 23:41:00,
2013-05-27 19:46:00,59.3,49.8,30.09,ESE,109,3.0,9.0,70,0.00,,OVC OVC///CB,0.03,WUHU216DAVISVP2,2013-05-27 23:46:00,
2013-05-27 19:51:00,59.3,49.8,30.10,SSE,149,1.0,9.0,70,0.00,,OVC OVC///CB,0.03,WUHU216DAVISVP2,2013-05-27 23:51:00,
2013-05-27 19:56:00,59.2,50.1,30.10,East,100,7.0,8.0,71,0.00,,OVC OVC///CB,0.03,WUHU216DAVISVP2,2013-05-27 23:56:00,
2013-05-27 20:01:00,59.1,50.0,30.10,East,89,2.0,8.0,71,0.00,,OVC OVC///CB,0.03,WUHU216DAVISVP2,2013-05-28 00:01:00,
2013-05-27 20:06:00,59.0,49.9,30.10,East,91,3.0,8.0,71,0.00,,OVC OVC///CB,0.03,WUHU216DAVISVP2,2013-05-28 00:06:00,
2013-05-27 20:11:00,58.9,49.8,30.10,East,101,6.0,8.0,71,0.00,,OVC OVC///CB,0.03,WUHU216DAVISVP2,2013-05-28 00:11:00,
2013-05-27 20:16:00,58.9,49.8,30.10,East,94,3.0,7.0,71,0.00,,OVC OVC///CB,0.03,WUHU216DAVISVP2,2013-05-28 00:16:00,
2013-05-27 20:21:00,58.8,50.1,30.10,ESE,120,6.0,7.0,72,0.00,,OVC OVC///CB,0.03,WUHU216DAVISVP2,2013-05-28 00:21:00,
2013-05-27 20:26:00,58.7,50.0,30.11,WSW,245,1.0,9.0,72,0.00,,OVC OVC///CB,0.03,WUHU216DAVISVP2,2013-05-28 00:26:00,
2013-05-27 20:31:00,58.6,49.9,30.10,East,81,2.0,9.0,72,0.00,,OVC OVC///CB,0.03,WUHU216DAVISVP2,2013-05-28 00:31:00,
2013-05-27 20:36:00,58.5,50.1,30.09,SSE,158,0.0,8.0,73,0.00,,OVC OVC///CB,0.03,WUHU216DAVISVP2,2013-05-28 00:36:00,
2013-05-27 20:41:00,58.4,50.0,30.09,East,81,7.0,8.0,73,0.00,,OVC OVC///CB,0.03,WUHU216DAVISVP2,2013-05-28 00:41:00,
2013-05-27 20:46:00,58.3,49.9,30.08,SE,124,2.0,7.0,73,0.00,,OVC OVC///CB,0.03,WUHU216DAVISVP2,2013-05-28 00:46:00,
2013-05-27 20:51:00,58.3,49.9,30.08,ENE,75,1.0,7.0,73,0.00,,OVC OVC///CB,0.03,WUHU216DAVISVP2,2013-05-28 00:51:00,
2013-05-27 20:56:00,58.2,50.2,30.09,ESE,108,0.0,6.0,74,0.00,,OVC OVC///CB,0.03,WUHU216DAVISVP2,2013-05-28 00:56:00,
2013-05-27 21:01:00,58.1,50.1,30.09,ESE,123,0.0,6.0,74,0.00,,OVC OVC///CB,0.03,WUHU216DAVISVP2,2013-05-28 01:01:00,
2013-05-27 21:06:00,58.1,50.1,30.08,East,81,1.0,6.0,74,0.00,,OVC OVC///CB,0.03,WUHU216DAVISVP2,2013-05-28 01:06:00,
2013-05-27 21:11:00,58.0,50.0,30.08,ESE,117,3.0,8.0,74,0.00,,OVC OVC///CB,0.03,WUHU216DAVISVP2,2013-05-28 01:11:00,
2013-05-27 21:16:00,58.0,50.0,30.08,ESE,105,3.0,9.0,74,0.00,,OVC OVC///CB,0.03,WUHU216DAVISVP2,2013-05-28 01:16:00,
2013-05-27 21:21:00,57.9,49.9,30.08,East,99,2.0,9.0,74,0.00,,OVC OVC///CB,0.03,WUHU216DAVISVP2,2013-05-28 01:21:00,
2013-05-27 21:26:00,57.9,49.9,30.08,West,260,1.0,8.0,74,0.00,,OVC OVC///CB,0.03,WUHU216DAVISVP2,2013-05-28 01:26:00,
2013-05-27 21:31:00,57.9,49.9,30.08,ENE,76,2.0,8.0,74,0.00,,OVC OVC///CB,0.03,WUHU216DAVISVP2,2013-05-28 01:31:00,
2013-05-27 21:36:00,57.9,49.9,30.08,ESE,110,2.0,9.0,74,0.00,,OVC OVC///CB,0.03,WUHU216DAVISVP2,2013-05-28 01:36:00,
2013-05-27 21:41:00,57.9,49.9,30.08,ESE,122,4.0,9.0,74,0.00,,OVC OVC///CB,0.03,WUHU216DAVISVP2,2013-05-28 01:41:00,
2013-05-27 21:46:00,57.9,50.3,30.08,ENE,71,3.0,8.0,75,0.00,,OVC OVC///CB,0.03,WUHU216DAVISVP2,2013-05-28 01:46:00,
2013-05-27 21:51:00,57.9,50.3,30.08,East,92,1.0,8.0,75,0.00,,OVC OVC///CB,0.03,WUHU216DAVISVP2,2013-05-28 01:51:00,
2013-05-27 21:56:00,57.9,50.3,30.08,South,171,1.0,7.0,75,0.00,,OVC OVC///CB,0.03,WUHU216DAVISVP2,2013-05-28 01:56:00,
2013-05-27 22:01:00,57.8,50.2,30.08,SSW,205,0.0,6.0,75,0.00,,OVC OVC///CB,0.03,WUHU216DAVISVP2,2013-05-28 02:01:00,
2013-05-27 22:06:00,57.9,50.3,30.08,ESE,113,0.0,10.0,75,0.00,,OVC OVC///CB,0.03,WUHU216DAVISVP2,2013-05-28 02:06:00,
2013-05-27 22:11:00,57.8,50.2,30.08,SW,221,0.0,10.0,75,0.00,,OVC OVC///CB,0.03,WUHU216DAVISVP2,2013-05-28 02:11:00,
2013-05-27 22:16:00,57.8,50.2,30.08,ESE,122,0.0,9.0,75,0.00,,OVC OVC///CB,0.03,WUHU216DAVISVP2,2013-05-28 02:16:00,
2013-05-27 22:21:00,57.7,50.4,30.08,SE,136,1.0,5.0,76,0.00,,OVC OVC///CB,0.03,WUHU216DAVISVP2,2013-05-28 02:21:00,
2013-05-27 22:26:00,57.6,50.7,30.09,SSE,154,0.0,4.0,77,0.00,,OVC OVC///CB,0.03,WUHU216DAVISVP2,2013-05-28 02:26:00,
2013-05-27 22:31:00,57.3,51.0,30.08,ESE,103,0.0,4.0,79,0.00,,OVC OVC///CB,0.03,WUHU216DAVISVP2,2013-05-28 02:31:00,
2013-05-27 22:36:00,56.9,51.3,30.08,ESE,103,0.0,2.0,81,0.00,,OVC OVC///CB,0.03,WUHU216DAVISVP2,2013-05-28 02:36:00,
2013-05-27 22:41:00,56.6,51.6,30.08,ESE,103,0.0,1.0,83,0.00,,OVC OVC///CB,0.03,WUHU216DAVISVP2,2013-05-28 02:41:00,
2013-05-27 22:46:00,56.2,51.3,30.08,SE,131,0.0,1.0,83,0.00,,OVC OVC///CB,0.03,WUHU216DAVISVP2,2013-05-28 02:46:00,
2013-05-27 22:51:00,56.0,51.4,30.08,ESE,113,0.0,1.0,84,0.00,,OVC OVC///CB,0.03,WUHU216DAVISVP2,2013-05-28 02:51:00,
2013-05-27 22:56:00,55.9,51.6,30.08,ESE,115,0.0,2.0,85,0.01,,OVC OVC///CB,0.04,WUHU216DAVISVP2,2013-05-28 02:56:00,
2013-05-27 23:01:00,55.7,51.7,30.08,ESE,105,0.0,2.0,86,0.01,,OVC OVC///CB,0.04,WUHU216DAVISVP2,2013-05-28 03:01:00,
2013-05-27 23:06:00,55.5,51.5,30.07,SSW,195,0.0,5.0,86,0.01,,OVC OVC///CB,0.04,WUHU216DAVISVP2,2013-05-28 03:06:00,
2013-05-27 23:11:00,55.3,51.6,30.07,South,190,0.0,5.0,87,0.01,,OVC OVC///CB,0.04,WUHU216DAVISVP2,2013-05-28 03:11:00,
2013-05-27 23:16:00,55.2,51.5,30.07,ESE,123,0.0,5.0,87,0.01,,OVC OVC///CB,0.04,WUHU216DAVISVP2,2013-05-28 03:16:00,
2013-05-27 23:21:00,55.2,51.5,30.07,ESE,109,0.0,5.0,87,0.01,,OVC OVC///CB,0.04,WUHU216DAVISVP2,2013-05-28 03:21:00,
2013-05-27 23:26:00,55.2,51.5,30.07,East,94,4.0,5.0,87,0.01,,OVC OVC///CB,0.04,WUHU216DAVISVP2,2013-05-28 03:26:00,
2013-05-27 23:31:00,55.2,51.5,30.07,East,94,2.0,5.0,87,0.01,,OVC OVC///CB,0.04,WUHU216DAVISVP2,2013-05-28 03:31:00,
2013-05-27 23:36:00,55.2,51.5,30.06,SE,128,2.0,5.0,87,0.01,,OVC OVC///CB,0.04,WUHU216DAVISVP2,2013-05-28 03:36:00,
2013-05-27 23:41:00,55.2,51.5,30.07,East,89,3.0,4.0,87,0.01,,OVC OVC///CB,0.04,WUHU216DAVISVP2,2013-05-28 03:41:00,
2013-05-27 23:46:00,55.2,51.5,30.06,East,97,3.0,5.0,87,0.01,,OVC OVC///CB,0.04,WUHU216DAVISVP2,2013-05-28 03:46:00,
2013-05-27 23:51:00,55.2,51.5,30.06,ENE,64,0.0,5.0,87,0.01,,OVC OVC///CB,0.04,WUHU216DAVISVP2,2013-05-28 03:51:00,
2013-05-27 23:56:00,55.2,51.5,30.06,SW,233,0.0,4.0,87,0.00,,OVC OVC///CB,0.04,WUHU216DAVISVP2,2013-05-28 03:56:00,